sensor_id;sensor_type;location;lat;lon;timestamp;temperature;humidity
22623;DHT22;11478;51.094;7.030;2023-11-19T00:00:06;9.70;99.90
22623;DHT22;11478;51.094;7.030;2023-11-19T00:02:39;9.70;99.90
22623;DHT22;11478;51.094;7.030;2023-11-19T00:05:05;9.60;99.90
22623;DHT22;11478;51.094;7.030;2023-11-19T00:07:42;9.60;99.90
22623;DHT22;11478;51.094;7.030;2023-11-19T00:10:15;9.60;99.90
22623;DHT22;11478;51.094;7.030;2023-11-19T00:12:46;9.50;99.90
22623;DHT22;11478;51.094;7.030;2023-11-19T00:15:17;9.60;99.90
22623;DHT22;11478;51.094;7.030;2023-11-19T00:17:47;9.70;99.90
22623;DHT22;11478;51.094;7.030;2023-11-19T00:20:15;9.70;99.90
22623;DHT22;11478;51.094;7.030;2023-11-19T00:22:42;9.80;99.90
22623;DHT22;11478;51.094;7.030;2023-11-19T00:25:09;9.80;99.90
22623;DHT22;11478;51.094;7.030;2023-11-19T00:27:38;9.90;99.90
22623;DHT22;11478;51.094;7.030;2023-11-19T00:30:07;9.90;99.90
22623;DHT22;11478;51.094;7.030;2023-11-19T00:32:38;9.90;99.90
22623;DHT22;11478;51.094;7.030;2023-11-19T00:35:08;9.90;99.90
22623;DHT22;11478;51.094;7.030;2023-11-19T00:37:43;9.90;99.90
22623;DHT22;11478;51.094;7.030;2023-11-19T00:40:09;9.80;99.90
22623;DHT22;11478;51.094;7.030;2023-11-19T00:42:46;9.80;99.90
22623;DHT22;11478;51.094;7.030;2023-11-19T00:45:13;9.80;99.90
22623;DHT22;11478;51.094;7.030;2023-11-19T00:47:44;9.70;99.90
22623;DHT22;11478;51.094;7.030;2023-11-19T00:50:10;9.80;99.90
22623;DHT22;11478;51.094;7.030;2023-11-19T00:52:39;9.70;99.90
22623;DHT22;11478;51.094;7.030;2023-11-19T00:55:05;9.70;99.90
22623;DHT22;11478;51.094;7.030;2023-11-19T00:57:34;9.70;99.90
22623;DHT22;11478;51.094;7.030;2023-11-19T01:00:01;9.70;99.90
22623;DHT22;11478;51.094;7.030;2023-11-19T01:02:32;9.70;99.90
22623;DHT22;11478;51.094;7.030;2023-11-19T01:05:00;9.60;99.90
22623;DHT22;11478;51.094;7.030;2023-11-19T01:07:45;9.70;99.90
22623;DHT22;11478;51.094;7.030;2023-11-19T01:10:31;9.60;99.90
22623;DHT22;11478;51.094;7.030;2023-11-19T01:12:57;9.60;99.90
22623;DHT22;11478;51.094;7.030;2023-11-19T01:15:33;9.60;99.90
22623;DHT22;11478;51.094;7.030;2023-11-19T01:17:58;9.60;99.90
22623;DHT22;11478;51.094;7.030;2023-11-19T01:20:33;9.60;99.90
22623;DHT22;11478;51.094;7.030;2023-11-19T01:22:59;9.70;99.90
22623;DHT22;11478;51.094;7.030;2023-11-19T01:25:25;9.60;99.90
22623;DHT22;11478;51.094;7.030;2023-11-19T01:27:51;9.70;99.90
22623;DHT22;11478;51.094;7.030;2023-11-19T01:30:23;9.70;99.90
22623;DHT22;11478;51.094;7.030;2023-11-19T01:32:49;9.70;99.90
22623;DHT22;11478;51.094;7.030;2023-11-19T01:35:17;9.70;99.90
22623;DHT22;11478;51.094;7.030;2023-11-19T01:37:43;9.60;99.90
22623;DHT22;11478;51.094;7.030;2023-11-19T01:40:22;9.60;99.90
22623;DHT22;11478;51.094;7.030;2023-11-19T01:42:47;9.60;99.90
22623;DHT22;11478;51.094;7.030;2023-11-19T01:45:27;9.70;99.90
22623;DHT22;11478;51.094;7.030;2023-11-19T01:47:55;9.60;99.90
22623;DHT22;11478;51.094;7.030;2023-11-19T01:50:22;9.60;99.90
22623;DHT22;11478;51.094;7.030;2023-11-19T01:52:48;9.60;99.90
22623;DHT22;11478;51.094;7.030;2023-11-19T01:55:17;9.60;99.90
22623;DHT22;11478;51.094;7.030;2023-11-19T01:57:43;9.60;99.90
22623;DHT22;11478;51.094;7.030;2023-11-19T02:00:10;9.60;99.90
22623;DHT22;11478;51.094;7.030;2023-11-19T02:02:38;9.60;99.90
22623;DHT22;11478;51.094;7.030;2023-11-19T02:05:06;9.60;99.90
22623;DHT22;11478;51.094;7.030;2023-11-19T02:07:32;9.60;99.90
22623;DHT22;11478;51.094;7.030;2023-11-19T02:10:01;9.70;99.90
22623;DHT22;11478;51.094;7.030;2023-11-19T02:12:33;9.60;99.90
22623;DHT22;11478;51.094;7.030;2023-11-19T02:15:00;9.60;99.90
22623;DHT22;11478;51.094;7.030;2023-11-19T02:17:30;9.70;99.90
22623;DHT22;11478;51.094;7.030;2023-11-19T02:20:04;9.70;99.90
22623;DHT22;11478;51.094;7.030;2023-11-19T02:22:41;9.70;99.90
22623;DHT22;11478;51.094;7.030;2023-11-19T02:25:29;9.70;99.90
22623;DHT22;11478;51.094;7.030;2023-11-19T02:28:00;9.70;99.90
22623;DHT22;11478;51.094;7.030;2023-11-19T02:30:37;9.70;99.90
22623;DHT22;11478;51.094;7.030;2023-11-19T02:33:06;9.70;99.90
22623;DHT22;11478;51.094;7.030;2023-11-19T02:35:35;9.70;99.90
22623;DHT22;11478;51.094;7.030;2023-11-19T02:38:01;9.70;99.90
22623;DHT22;11478;51.094;7.030;2023-11-19T02:40:30;9.70;99.90
22623;DHT22;11478;51.094;7.030;2023-11-19T02:42:56;9.70;99.90
22623;DHT22;11478;51.094;7.030;2023-11-19T02:45:24;9.70;99.90
22623;DHT22;11478;51.094;7.030;2023-11-19T02:47:51;9.70;99.90
22623;DHT22;11478;51.094;7.030;2023-11-19T02:50:20;9.80;99.90
22623;DHT22;11478;51.094;7.030;2023-11-19T02:52:54;9.80;99.90
22623;DHT22;11478;51.094;7.030;2023-11-19T02:55:23;9.80;99.90
22623;DHT22;11478;51.094;7.030;2023-11-19T02:57:50;9.70;99.90
22623;DHT22;11478;51.094;7.030;2023-11-19T03:00:21;9.80;99.90
22623;DHT22;11478;51.094;7.030;2023-11-19T03:02:57;9.80;99.90
22623;DHT22;11478;51.094;7.030;2023-11-19T03:05:35;9.80;99.90
22623;DHT22;11478;51.094;7.030;2023-11-19T03:08:05;9.70;99.90
22623;DHT22;11478;51.094;7.030;2023-11-19T03:10:31;9.70;99.90
22623;DHT22;11478;51.094;7.030;2023-11-19T03:12:57;9.80;99.90
22623;DHT22;11478;51.094;7.030;2023-11-19T03:15:25;9.80;99.90
22623;DHT22;11478;51.094;7.030;2023-11-19T03:17:51;9.80;99.90
22623;DHT22;11478;51.094;7.030;2023-11-19T03:20:17;9.80;99.90
22623;DHT22;11478;51.094;7.030;2023-11-19T03:22:43;9.80;99.90
22623;DHT22;11478;51.094;7.030;2023-11-19T03:25:10;9.80;99.90
22623;DHT22;11478;51.094;7.030;2023-11-19T03:27:39;9.80;99.90
22623;DHT22;11478;51.094;7.030;2023-11-19T03:30:09;9.80;99.90
22623;DHT22;11478;51.094;7.030;2023-11-19T03:32:35;9.80;99.90
22623;DHT22;11478;51.094;7.030;2023-11-19T03:35:05;9.80;99.90
22623;DHT22;11478;51.094;7.030;2023-11-19T03:37:35;9.80;99.90
22623;DHT22;11478;51.094;7.030;2023-11-19T03:40:02;9.80;99.90
22623;DHT22;11478;51.094;7.030;2023-11-19T03:42:35;9.80;99.90
22623;DHT22;11478;51.094;7.030;2023-11-19T03:45:01;9.80;99.90
22623;DHT22;11478;51.094;7.030;2023-11-19T03:47:29;9.80;99.90
22623;DHT22;11478;51.094;7.030;2023-11-19T03:49:55;9.80;99.90
22623;DHT22;11478;51.094;7.030;2023-11-19T03:52:22;9.80;99.90
22623;DHT22;11478;51.094;7.030;2023-11-19T03:54:48;9.80;99.90
22623;DHT22;11478;51.094;7.030;2023-11-19T03:57:19;9.80;99.90
22623;DHT22;11478;51.094;7.030;2023-11-19T03:59:45;9.90;99.90
22623;DHT22;11478;51.094;7.030;2023-11-19T04:02:17;10.10;99.90
22623;DHT22;11478;51.094;7.030;2023-11-19T04:04:43;10.20;99.90
22623;DHT22;11478;51.094;7.030;2023-11-19T04:07:10;10.30;99.90
22623;DHT22;11478;51.094;7.030;2023-11-19T04:09:35;10.50;99.90
22623;DHT22;11478;51.094;7.030;2023-11-19T04:12:10;10.70;99.90
22623;DHT22;11478;51.094;7.030;2023-11-19T04:14:36;10.90;99.90
22623;DHT22;11478;51.094;7.030;2023-11-19T04:17:14;11.00;99.90
22623;DHT22;11478;51.094;7.030;2023-11-19T04:19:40;11.10;99.90
22623;DHT22;11478;51.094;7.030;2023-11-19T04:22:13;11.10;99.90
22623;DHT22;11478;51.094;7.030;2023-11-19T04:24:39;11.10;99.90
22623;DHT22;11478;51.094;7.030;2023-11-19T04:27:06;11.20;99.90
22623;DHT22;11478;51.094;7.030;2023-11-19T04:29:32;11.10;99.90
22623;DHT22;11478;51.094;7.030;2023-11-19T04:31:58;11.10;99.90
22623;DHT22;11478;51.094;7.030;2023-11-19T04:34:26;11.10;99.90
22623;DHT22;11478;51.094;7.030;2023-11-19T04:36:52;11.00;99.90
22623;DHT22;11478;51.094;7.030;2023-11-19T04:39:18;10.90;99.90
22623;DHT22;11478;51.094;7.030;2023-11-19T04:41:50;10.90;99.90
22623;DHT22;11478;51.094;7.030;2023-11-19T04:44:19;10.90;99.90
22623;DHT22;11478;51.094;7.030;2023-11-19T04:46:46;10.80;99.90
22623;DHT22;11478;51.094;7.030;2023-11-19T04:49:12;10.90;99.90
22623;DHT22;11478;51.094;7.030;2023-11-19T04:51:44;10.90;99.90
22623;DHT22;11478;51.094;7.030;2023-11-19T04:54:12;10.90;99.90
22623;DHT22;11478;51.094;7.030;2023-11-19T04:56:40;11.00;99.90
22623;DHT22;11478;51.094;7.030;2023-11-19T04:59:10;11.10;99.90
22623;DHT22;11478;51.094;7.030;2023-11-19T05:01:36;11.10;99.90
22623;DHT22;11478;51.094;7.030;2023-11-19T05:04:02;11.10;99.90
22623;DHT22;11478;51.094;7.030;2023-11-19T05:06:30;11.20;99.90
22623;DHT22;11478;51.094;7.030;2023-11-19T05:08:58;11.20;99.90
22623;DHT22;11478;51.094;7.030;2023-11-19T05:11:24;11.20;99.90
22623;DHT22;11478;51.094;7.030;2023-11-19T05:13:51;11.30;99.90
22623;DHT22;11478;51.094;7.030;2023-11-19T05:16:17;11.30;99.90
22623;DHT22;11478;51.094;7.030;2023-11-19T05:18:44;11.40;99.90
22623;DHT22;11478;51.094;7.030;2023-11-19T05:21:10;11.30;99.90
22623;DHT22;11478;51.094;7.030;2023-11-19T05:23:37;11.30;99.90
22623;DHT22;11478;51.094;7.030;2023-11-19T05:26:05;11.30;99.90
22623;DHT22;11478;51.094;7.030;2023-11-19T05:28:31;11.30;99.90
22623;DHT22;11478;51.094;7.030;2023-11-19T05:30:57;11.30;99.90
22623;DHT22;11478;51.094;7.030;2023-11-19T05:33:29;11.30;99.90
22623;DHT22;11478;51.094;7.030;2023-11-19T05:35:55;11.30;99.90
22623;DHT22;11478;51.094;7.030;2023-11-19T05:38:26;11.30;99.90
22623;DHT22;11478;51.094;7.030;2023-11-19T05:40:52;11.30;99.90
22623;DHT22;11478;51.094;7.030;2023-11-19T05:43:18;11.30;99.90
22623;DHT22;11478;51.094;7.030;2023-11-19T05:45:44;11.30;99.90
22623;DHT22;11478;51.094;7.030;2023-11-19T05:48:20;11.20;99.90
22623;DHT22;11478;51.094;7.030;2023-11-19T05:50:46;11.20;99.90
22623;DHT22;11478;51.094;7.030;2023-11-19T05:53:21;11.20;99.90
22623;DHT22;11478;51.094;7.030;2023-11-19T05:55:47;11.10;99.90
22623;DHT22;11478;51.094;7.030;2023-11-19T05:58:22;11.10;99.90
22623;DHT22;11478;51.094;7.030;2023-11-19T06:00:50;11.10;99.90
22623;DHT22;11478;51.094;7.030;2023-11-19T06:03:16;11.00;99.90
22623;DHT22;11478;51.094;7.030;2023-11-19T06:05:45;11.00;99.90
22623;DHT22;11478;51.094;7.030;2023-11-19T06:08:11;11.00;99.90
22623;DHT22;11478;51.094;7.030;2023-11-19T06:10:39;11.00;99.90
22623;DHT22;11478;51.094;7.030;2023-11-19T06:13:10;11.00;99.90
22623;DHT22;11478;51.094;7.030;2023-11-19T06:15:36;11.00;99.90
22623;DHT22;11478;51.094;7.030;2023-11-19T06:18:03;11.00;99.90
22623;DHT22;11478;51.094;7.030;2023-11-19T06:20:33;11.00;99.90
22623;DHT22;11478;51.094;7.030;2023-11-19T06:22:59;11.00;99.90
22623;DHT22;11478;51.094;7.030;2023-11-19T06:25:26;11.00;99.90
22623;DHT22;11478;51.094;7.030;2023-11-19T06:27:52;11.00;99.90
22623;DHT22;11478;51.094;7.030;2023-11-19T06:30:18;11.00;99.90
22623;DHT22;11478;51.094;7.030;2023-11-19T06:32:53;11.00;99.90
22623;DHT22;11478;51.094;7.030;2023-11-19T06:35:19;11.00;99.90
22623;DHT22;11478;51.094;7.030;2023-11-19T06:37:48;11.00;99.90
22623;DHT22;11478;51.094;7.030;2023-11-19T06:40:14;11.00;99.90
22623;DHT22;11478;51.094;7.030;2023-11-19T06:42:43;11.00;99.90
22623;DHT22;11478;51.094;7.030;2023-11-19T06:45:09;10.90;99.90
22623;DHT22;11478;51.094;7.030;2023-11-19T06:47:35;10.90;99.90
22623;DHT22;11478;51.094;7.030;2023-11-19T06:50:01;10.80;99.90
22623;DHT22;11478;51.094;7.030;2023-11-19T06:52:27;10.80;99.90
22623;DHT22;11478;51.094;7.030;2023-11-19T06:54:53;10.70;99.90
22623;DHT22;11478;51.094;7.030;2023-11-19T06:57:18;10.70;99.90
22623;DHT22;11478;51.094;7.030;2023-11-19T06:59:52;10.60;99.90
22623;DHT22;11478;51.094;7.030;2023-11-19T07:02:18;10.60;99.90
22623;DHT22;11478;51.094;7.030;2023-11-19T07:04:45;10.60;99.90
22623;DHT22;11478;51.094;7.030;2023-11-19T07:07:11;10.50;99.90
22623;DHT22;11478;51.094;7.030;2023-11-19T07:09:37;10.40;99.90
22623;DHT22;11478;51.094;7.030;2023-11-19T07:12:03;10.30;99.90
22623;DHT22;11478;51.094;7.030;2023-11-19T07:14:30;10.30;99.90
22623;DHT22;11478;51.094;7.030;2023-11-19T07:17:05;10.20;99.90
22623;DHT22;11478;51.094;7.030;2023-11-19T07:19:31;10.20;99.90
22623;DHT22;11478;51.094;7.030;2023-11-19T07:21:59;10.10;99.90
22623;DHT22;11478;51.094;7.030;2023-11-19T07:24:25;10.10;99.90
22623;DHT22;11478;51.094;7.030;2023-11-19T07:26:57;10.10;99.90
22623;DHT22;11478;51.094;7.030;2023-11-19T07:29:23;10.10;99.90
22623;DHT22;11478;51.094;7.030;2023-11-19T07:32:03;10.10;99.90
22623;DHT22;11478;51.094;7.030;2023-11-19T07:34:30;10.10;99.90
22623;DHT22;11478;51.094;7.030;2023-11-19T07:37:21;10.10;99.90
22623;DHT22;11478;51.094;7.030;2023-11-19T07:39:47;10.10;99.90
22623;DHT22;11478;51.094;7.030;2023-11-19T07:42:13;10.10;99.90
22623;DHT22;11478;51.094;7.030;2023-11-19T07:44:43;10.10;99.90
22623;DHT22;11478;51.094;7.030;2023-11-19T07:47:09;10.10;99.90
22623;DHT22;11478;51.094;7.030;2023-11-19T07:49:54;10.00;99.90
22623;DHT22;11478;51.094;7.030;2023-11-19T07:52:19;10.00;99.90
22623;DHT22;11478;51.094;7.030;2023-11-19T07:54:55;10.00;99.90
22623;DHT22;11478;51.094;7.030;2023-11-19T07:57:20;9.90;99.90
22623;DHT22;11478;51.094;7.030;2023-11-19T07:59:56;9.90;99.90
22623;DHT22;11478;51.094;7.030;2023-11-19T08:02:22;10.10;99.90
22623;DHT22;11478;51.094;7.030;2023-11-19T08:04:59;10.10;99.90
22623;DHT22;11478;51.094;7.030;2023-11-19T08:07:25;10.20;99.90
22623;DHT22;11478;51.094;7.030;2023-11-19T08:09:51;10.20;99.90
22623;DHT22;11478;51.094;7.030;2023-11-19T08:12:18;10.20;99.90
22623;DHT22;11478;51.094;7.030;2023-11-19T08:14:44;10.20;99.90
22623;DHT22;11478;51.094;7.030;2023-11-19T08:17:13;10.30;99.90
22623;DHT22;11478;51.094;7.030;2023-11-19T08:19:39;10.40;99.90
22623;DHT22;11478;51.094;7.030;2023-11-19T08:22:06;10.50;99.90
22623;DHT22;11478;51.094;7.030;2023-11-19T08:24:31;10.50;99.90
22623;DHT22;11478;51.094;7.030;2023-11-19T08:26:58;10.60;99.90
22623;DHT22;11478;51.094;7.030;2023-11-19T08:29:27;10.70;99.90
22623;DHT22;11478;51.094;7.030;2023-11-19T08:32:01;10.70;99.90
22623;DHT22;11478;51.094;7.030;2023-11-19T08:34:27;10.80;99.90
22623;DHT22;11478;51.094;7.030;2023-11-19T08:36:55;10.90;99.90
22623;DHT22;11478;51.094;7.030;2023-11-19T08:39:21;11.00;99.90
22623;DHT22;11478;51.094;7.030;2023-11-19T08:41:47;11.00;99.90
22623;DHT22;11478;51.094;7.030;2023-11-19T08:44:16;11.10;99.90
22623;DHT22;11478;51.094;7.030;2023-11-19T08:46:51;11.20;99.90
22623;DHT22;11478;51.094;7.030;2023-11-19T08:49:22;11.20;99.90
22623;DHT22;11478;51.094;7.030;2023-11-19T08:51:48;11.20;99.90
22623;DHT22;11478;51.094;7.030;2023-11-19T08:54:15;11.30;99.90
22623;DHT22;11478;51.094;7.030;2023-11-19T08:56:41;11.30;99.90
22623;DHT22;11478;51.094;7.030;2023-11-19T08:59:09;11.30;99.90
22623;DHT22;11478;51.094;7.030;2023-11-19T09:01:35;11.30;99.90
22623;DHT22;11478;51.094;7.030;2023-11-19T09:04:03;11.30;99.90
22623;DHT22;11478;51.094;7.030;2023-11-19T09:06:30;11.40;99.90
22623;DHT22;11478;51.094;7.030;2023-11-19T09:08:56;11.50;99.90
22623;DHT22;11478;51.094;7.030;2023-11-19T09:11:26;11.50;99.90
22623;DHT22;11478;51.094;7.030;2023-11-19T09:13:57;11.60;99.90
22623;DHT22;11478;51.094;7.030;2023-11-19T09:16:23;11.60;99.90
22623;DHT22;11478;51.094;7.030;2023-11-19T09:18:49;11.60;99.90
22623;DHT22;11478;51.094;7.030;2023-11-19T09:21:15;11.60;99.90
22623;DHT22;11478;51.094;7.030;2023-11-19T09:23:48;11.60;99.90
22623;DHT22;11478;51.094;7.030;2023-11-19T09:26:15;11.60;99.90
22623;DHT22;11478;51.094;7.030;2023-11-19T09:28:42;11.60;99.90
22623;DHT22;11478;51.094;7.030;2023-11-19T09:31:17;11.60;99.90
22623;DHT22;11478;51.094;7.030;2023-11-19T09:33:44;11.60;99.90
22623;DHT22;11478;51.094;7.030;2023-11-19T09:36:12;11.60;99.90
22623;DHT22;11478;51.094;7.030;2023-11-19T09:38:45;11.60;99.90
22623;DHT22;11478;51.094;7.030;2023-11-19T09:41:11;11.60;99.90
22623;DHT22;11478;51.094;7.030;2023-11-19T09:43:45;11.70;99.90
22623;DHT22;11478;51.094;7.030;2023-11-19T09:46:14;11.70;99.90
22623;DHT22;11478;51.094;7.030;2023-11-19T09:48:44;11.80;99.90
22623;DHT22;11478;51.094;7.030;2023-11-19T09:51:11;11.70;99.90
22623;DHT22;11478;51.094;7.030;2023-11-19T09:53:37;11.80;99.90
22623;DHT22;11478;51.094;7.030;2023-11-19T09:56:04;11.80;99.90
22623;DHT22;11478;51.094;7.030;2023-11-19T09:58:34;11.90;99.90
22623;DHT22;11478;51.094;7.030;2023-11-19T10:01:01;11.90;99.90
22623;DHT22;11478;51.094;7.030;2023-11-19T10:03:33;11.90;99.90
22623;DHT22;11478;51.094;7.030;2023-11-19T10:06:07;11.90;99.90
22623;DHT22;11478;51.094;7.030;2023-11-19T10:08:34;11.90;99.90
22623;DHT22;11478;51.094;7.030;2023-11-19T10:11:00;12.00;99.90
22623;DHT22;11478;51.094;7.030;2023-11-19T10:13:27;12.00;99.90
22623;DHT22;11478;51.094;7.030;2023-11-19T10:15:53;12.00;99.90
22623;DHT22;11478;51.094;7.030;2023-11-19T10:18:27;12.00;99.90
22623;DHT22;11478;51.094;7.030;2023-11-19T10:20:53;12.10;99.90
22623;DHT22;11478;51.094;7.030;2023-11-19T10:23:22;12.10;99.90
22623;DHT22;11478;51.094;7.030;2023-11-19T10:25:48;12.20;99.90
22623;DHT22;11478;51.094;7.030;2023-11-19T10:28:21;12.20;99.90
22623;DHT22;11478;51.094;7.030;2023-11-19T10:30:48;12.30;99.90
22623;DHT22;11478;51.094;7.030;2023-11-19T10:33:15;12.40;99.90
22623;DHT22;11478;51.094;7.030;2023-11-19T10:35:53;12.40;99.90
22623;DHT22;11478;51.094;7.030;2023-11-19T10:38:21;12.40;99.90
22623;DHT22;11478;51.094;7.030;2023-11-19T10:40:48;12.50;99.90
22623;DHT22;11478;51.094;7.030;2023-11-19T10:43:15;12.50;99.90
22623;DHT22;11478;51.094;7.030;2023-11-19T10:45:40;12.50;99.90
22623;DHT22;11478;51.094;7.030;2023-11-19T10:48:20;12.50;99.90
22623;DHT22;11478;51.094;7.030;2023-11-19T10:50:51;12.40;99.90
22623;DHT22;11478;51.094;7.030;2023-11-19T10:53:53;12.40;99.90
22623;DHT22;11478;51.094;7.030;2023-11-19T10:56:25;12.40;99.90
22623;DHT22;11478;51.094;7.030;2023-11-19T10:58:54;12.50;99.90
22623;DHT22;11478;51.094;7.030;2023-11-19T11:01:24;12.50;99.90
22623;DHT22;11478;51.094;7.030;2023-11-19T11:03:53;12.50;99.90
22623;DHT22;11478;51.094;7.030;2023-11-19T11:06:30;12.50;99.90
22623;DHT22;11478;51.094;7.030;2023-11-19T11:08:56;12.50;99.90
22623;DHT22;11478;51.094;7.030;2023-11-19T11:11:33;12.50;99.90
22623;DHT22;11478;51.094;7.030;2023-11-19T11:14:00;12.50;99.90
22623;DHT22;11478;51.094;7.030;2023-11-19T11:16:29;12.50;99.90
22623;DHT22;11478;51.094;7.030;2023-11-19T11:18:58;12.50;99.90
22623;DHT22;11478;51.094;7.030;2023-11-19T11:21:26;12.50;99.90
22623;DHT22;11478;51.094;7.030;2023-11-19T11:26:51;12.40;99.90
22623;DHT22;11478;51.094;7.030;2023-11-19T11:32:50;12.40;99.90
22623;DHT22;11478;51.094;7.030;2023-11-19T11:38:27;12.50;99.90
22623;DHT22;11478;51.094;7.030;2023-11-19T11:41:26;12.60;99.90
22623;DHT22;11478;51.094;7.030;2023-11-19T11:43:55;12.60;99.90
22623;DHT22;11478;51.094;7.030;2023-11-19T11:49:02;12.70;99.90
22623;DHT22;11478;51.094;7.030;2023-11-19T11:57:13;12.70;99.90
22623;DHT22;11478;51.094;7.030;2023-11-19T11:59:45;12.70;99.90
22623;DHT22;11478;51.094;7.030;2023-11-19T12:02:19;12.80;99.90
22623;DHT22;11478;51.094;7.030;2023-11-19T12:04:51;12.90;99.90
22623;DHT22;11478;51.094;7.030;2023-11-19T12:07:30;12.90;99.90
22623;DHT22;11478;51.094;7.030;2023-11-19T12:10:15;12.90;99.90
22623;DHT22;11478;51.094;7.030;2023-11-19T12:12:41;12.90;99.90
22623;DHT22;11478;51.094;7.030;2023-11-19T12:15:17;12.90;99.90
22623;DHT22;11478;51.094;7.030;2023-11-19T12:17:49;12.90;99.90
22623;DHT22;11478;51.094;7.030;2023-11-19T12:20:16;13.00;99.90
22623;DHT22;11478;51.094;7.030;2023-11-19T12:22:45;13.00;99.90
22623;DHT22;11478;51.094;7.030;2023-11-19T12:25:16;13.00;99.90
22623;DHT22;11478;51.094;7.030;2023-11-19T12:27:44;13.00;99.90
22623;DHT22;11478;51.094;7.030;2023-11-19T12:33:09;13.10;99.90
22623;DHT22;11478;51.094;7.030;2023-11-19T12:35:51;13.10;99.90
22623;DHT22;11478;51.094;7.030;2023-11-19T12:38:21;13.10;99.90
22623;DHT22;11478;51.094;7.030;2023-11-19T12:41:09;13.20;99.90
22623;DHT22;11478;51.094;7.030;2023-11-19T12:43:41;13.20;99.90
22623;DHT22;11478;51.094;7.030;2023-11-19T12:46:21;13.20;99.90
22623;DHT22;11478;51.094;7.030;2023-11-19T12:48:48;13.20;99.90
22623;DHT22;11478;51.094;7.030;2023-11-19T12:51:14;13.10;99.90
22623;DHT22;11478;51.094;7.030;2023-11-19T12:53:51;13.00;99.90
22623;DHT22;11478;51.094;7.030;2023-11-19T12:56:21;12.90;99.90
22623;DHT22;11478;51.094;7.030;2023-11-19T12:58:49;12.80;99.90
22623;DHT22;11478;51.094;7.030;2023-11-19T13:01:17;12.70;99.90
22623;DHT22;11478;51.094;7.030;2023-11-19T13:03:48;12.70;99.90
22623;DHT22;11478;51.094;7.030;2023-11-19T13:06:15;12.70;99.90
22623;DHT22;11478;51.094;7.030;2023-11-19T13:08:45;12.70;99.90
22623;DHT22;11478;51.094;7.030;2023-11-19T13:11:12;12.70;99.90
22623;DHT22;11478;51.094;7.030;2023-11-19T13:13:58;12.70;99.90
22623;DHT22;11478;51.094;7.030;2023-11-19T13:16:30;12.80;99.90
22623;DHT22;11478;51.094;7.030;2023-11-19T13:18:56;12.80;99.90
22623;DHT22;11478;51.094;7.030;2023-11-19T13:21:31;12.90;99.90
22623;DHT22;11478;51.094;7.030;2023-11-19T13:23:59;12.90;99.90
22623;DHT22;11478;51.094;7.030;2023-11-19T13:26:28;12.90;99.90
22623;DHT22;11478;51.094;7.030;2023-11-19T13:28:54;12.90;99.90
22623;DHT22;11478;51.094;7.030;2023-11-19T13:31:29;12.90;99.90
22623;DHT22;11478;51.094;7.030;2023-11-19T13:33:54;12.80;99.90
22623;DHT22;11478;51.094;7.030;2023-11-19T13:36:20;12.80;99.90
22623;DHT22;11478;51.094;7.030;2023-11-19T13:38:46;12.80;99.90
22623;DHT22;11478;51.094;7.030;2023-11-19T13:41:15;12.70;99.90
22623;DHT22;11478;51.094;7.030;2023-11-19T13:43:41;12.70;99.90
22623;DHT22;11478;51.094;7.030;2023-11-19T13:46:07;12.70;99.90
22623;DHT22;11478;51.094;7.030;2023-11-19T13:48:35;12.70;99.90
22623;DHT22;11478;51.094;7.030;2023-11-19T13:51:02;12.70;99.90
22623;DHT22;11478;51.094;7.030;2023-11-19T13:53:28;12.70;99.90
22623;DHT22;11478;51.094;7.030;2023-11-19T13:55:55;12.70;99.90
22623;DHT22;11478;51.094;7.030;2023-11-19T13:58:21;12.70;99.90
22623;DHT22;11478;51.094;7.030;2023-11-19T14:00:59;12.70;99.90
22623;DHT22;11478;51.094;7.030;2023-11-19T14:03:25;12.70;99.90
22623;DHT22;11478;51.094;7.030;2023-11-19T14:05:54;12.60;99.90
22623;DHT22;11478;51.094;7.030;2023-11-19T14:08:20;12.60;99.90
22623;DHT22;11478;51.094;7.030;2023-11-19T14:10:47;12.50;99.90
22623;DHT22;11478;51.094;7.030;2023-11-19T14:13:14;12.40;99.90
22623;DHT22;11478;51.094;7.030;2023-11-19T14:15:41;12.40;99.90
22623;DHT22;11478;51.094;7.030;2023-11-19T14:18:07;12.40;99.90
22623;DHT22;11478;51.094;7.030;2023-11-19T14:20:33;12.40;99.90
22623;DHT22;11478;51.094;7.030;2023-11-19T14:23:02;12.30;99.90
22623;DHT22;11478;51.094;7.030;2023-11-19T14:25:28;12.40;99.90
22623;DHT22;11478;51.094;7.030;2023-11-19T14:27:58;12.30;99.90
22623;DHT22;11478;51.094;7.030;2023-11-19T14:30:25;12.30;99.90
22623;DHT22;11478;51.094;7.030;2023-11-19T14:32:57;12.30;99.90
22623;DHT22;11478;51.094;7.030;2023-11-19T14:38:40;12.20;99.90
22623;DHT22;11478;51.094;7.030;2023-11-19T14:41:11;12.20;99.90
22623;DHT22;11478;51.094;7.030;2023-11-19T14:43:39;12.10;99.90
22623;DHT22;11478;51.094;7.030;2023-11-19T14:46:08;12.10;99.90
22623;DHT22;11478;51.094;7.030;2023-11-19T14:48:34;12.00;99.90
22623;DHT22;11478;51.094;7.030;2023-11-19T14:51:09;11.90;99.90
22623;DHT22;11478;51.094;7.030;2023-11-19T14:53:35;11.80;99.90
22623;DHT22;11478;51.094;7.030;2023-11-19T14:56:05;11.70;99.90
22623;DHT22;11478;51.094;7.030;2023-11-19T14:58:32;11.60;99.90
22623;DHT22;11478;51.094;7.030;2023-11-19T15:01:12;11.60;99.90
22623;DHT22;11478;51.094;7.030;2023-11-19T15:03:38;11.60;99.90
22623;DHT22;11478;51.094;7.030;2023-11-19T15:06:39;11.60;99.90
22623;DHT22;11478;51.094;7.030;2023-11-19T15:09:05;11.60;99.90
22623;DHT22;11478;51.094;7.030;2023-11-19T15:11:33;11.60;99.90
22623;DHT22;11478;51.094;7.030;2023-11-19T15:13:59;11.70;99.90
22623;DHT22;11478;51.094;7.030;2023-11-19T15:16:29;11.70;99.90
22623;DHT22;11478;51.094;7.030;2023-11-19T15:19:09;11.70;99.90
22623;DHT22;11478;51.094;7.030;2023-11-19T15:21:41;11.60;99.90
22623;DHT22;11478;51.094;7.030;2023-11-19T15:24:10;11.70;99.90
22623;DHT22;11478;51.094;7.030;2023-11-19T15:26:36;11.60;99.90
22623;DHT22;11478;51.094;7.030;2023-11-19T15:29:04;11.60;99.90
22623;DHT22;11478;51.094;7.030;2023-11-19T15:31:31;11.50;99.90
22623;DHT22;11478;51.094;7.030;2023-11-19T15:34:01;11.50;99.90
22623;DHT22;11478;51.094;7.030;2023-11-19T15:36:28;11.40;99.90
22623;DHT22;11478;51.094;7.030;2023-11-19T15:38:56;11.40;99.90
22623;DHT22;11478;51.094;7.030;2023-11-19T15:41:22;11.30;99.90
22623;DHT22;11478;51.094;7.030;2023-11-19T15:44:09;11.30;99.90
22623;DHT22;11478;51.094;7.030;2023-11-19T15:46:36;11.20;99.90
22623;DHT22;11478;51.094;7.030;2023-11-19T15:49:06;11.20;99.90
22623;DHT22;11478;51.094;7.030;2023-11-19T15:51:32;11.10;99.90
22623;DHT22;11478;51.094;7.030;2023-11-19T15:54:15;11.10;99.90
22623;DHT22;11478;51.094;7.030;2023-11-19T15:56:41;11.10;99.90
22623;DHT22;11478;51.094;7.030;2023-11-19T15:59:07;11.00;99.90
22623;DHT22;11478;51.094;7.030;2023-11-19T16:01:33;11.00;99.90
22623;DHT22;11478;51.094;7.030;2023-11-19T16:04:01;10.90;99.90
22623;DHT22;11478;51.094;7.030;2023-11-19T16:06:29;10.90;99.90
22623;DHT22;11478;51.094;7.030;2023-11-19T16:09:03;10.90;99.90
22623;DHT22;11478;51.094;7.030;2023-11-19T16:11:29;10.80;99.90